Time;durP1;ratioP1;P1;durP2;ratioP2;P2;SDS_P1;SDS_P2;PMS_P1;PMS_P2;Temp;Humidity;BMP_temperature;BMP_pressure;BME280_temperature;BME280_humidity;BME280_pressure;Samples;Min_cycle;Max_cycle;Signal;HPM_P1;HPM_P2
2023/01/12 00:02:11;;;;;;;5.57;1.20;;;;;;;;;;5046368;28;20465;-79
2023/01/12 00:04:39;;;;;;;8.10;2.20;;;;;;;;;;5047614;28;20446;-79
2023/01/12 00:07:07;;;;;;;5.20;1.47;;;;;;;;;;5045099;28;20532;-79
2023/01/12 00:09:37;;;;;;;6.77;1.90;;;;;;;;;;5046676;28;20454;-78
2023/01/12 00:12:06;;;;;;;4.77;2.00;;;;;;;;;;5043801;28;20469;-78
2023/01/12 00:14:38;;;;;;;8.67;1.77;;;;;;;;;;5047275;28;20461;-80
2023/01/12 00:17:10;;;;;;;4.90;1.57;;;;;;;;;;5043218;28;20738;-80
2023/01/12 00:19:39;;;;;;;4.17;1.53;;;;;;;;;;5045647;28;20462;-79
2023/01/12 00:22:16;;;;;;;15.20;2.60;;;;;;;;;;5044190;28;20901;-79
2023/01/12 00:24:48;;;;;;;2.37;1.67;;;;;;;;;;5045568;28;20450;-78
2023/01/12 00:27:17;;;;;;;11.40;2.50;;;;;;;;;;5045828;28;20496;-79
2023/01/12 00:29:45;;;;;;;3.33;1.43;;;;;;;;;;5044598;28;20541;-79
2023/01/12 00:32:17;;;;;;;8.77;1.60;;;;;;;;;;5046843;28;20454;-79
2023/01/12 00:34:48;;;;;;;6.60;3.20;;;;;;;;;;5043565;28;20906;-80
2023/01/12 00:37:16;;;;;;;13.67;2.13;;;;;;;;;;5044631;28;20722;-80
2023/01/12 00:39:45;;;;;;;11.70;2.00;;;;;;;;;;5044065;28;20563;-79
2023/01/12 00:45:26;;;;;;;4.57;1.30;;;;;;;;;;5006824;28;20512;-80
2023/01/12 00:47:54;;;;;;;7.40;2.33;;;;;;;;;;5043763;28;20928;-80
2023/01/12 00:50:22;;;;;;;4.20;1.37;;;;;;;;;;5043397;28;20446;-80
2023/01/12 00:52:49;;;;;;;13.03;2.20;;;;;;;;;;5043410;28;20458;-79
2023/01/12 00:55:21;;;;;;;10.23;2.37;;;;;;;;;;5042196;28;20435;-79
2023/01/12 00:57:49;;;;;;;3.80;1.60;;;;;;;;;;5044394;28;20462;-79
2023/01/12 01:00:20;;;;;;;9.20;1.30;;;;;;;;;;5042979;28;20742;-80
2023/01/12 01:02:48;;;;;;;8.03;1.60;;;;;;;;;;5043931;28;20490;-79
2023/01/12 01:05:16;;;;;;;3.90;1.47;;;;;;;;;;5043379;28;20454;-79
2023/01/12 01:07:46;;;;;;;3.63;1.70;;;;;;;;;;5043213;28;20462;-79
2023/01/12 01:10:13;;;;;;;12.13;1.93;;;;;;;;;;5043288;28;20466;-78
2023/01/12 01:12:43;;;;;;;8.47;2.00;;;;;;;;;;5043989;28;20450;-79
2023/01/12 01:15:14;;;;;;;4.37;2.20;;;;;;;;;;5043555;28;20716;-78
2023/01/12 01:17:42;;;;;;;4.20;1.80;;;;;;;;;;5047705;28;20450;-82
2023/01/12 01:20:10;;;;;;;8.00;1.70;;;;;;;;;;5051219;28;20457;-81
2023/01/12 01:22:41;;;;;;;6.63;3.23;;;;;;;;;;5049374;28;20450;-80
2023/01/12 01:25:09;;;;;;;5.57;2.10;;;;;;;;;;5052695;28;20556;-79
2023/01/12 01:27:37;;;;;;;9.73;1.77;;;;;;;;;;5050273;28;20537;-82
2023/01/12 01:30:07;;;;;;;3.53;1.90;;;;;;;;;;5050949;28;20470;-80
2023/01/12 01:32:35;;;;;;;3.60;1.70;;;;;;;;;;5050165;28;20465;-80
2023/01/12 01:35:03;;;;;;;4.70;1.30;;;;;;;;;;5049537;28;20458;-81
2023/01/12 01:37:32;;;;;;;16.73;2.50;;;;;;;;;;5043028;28;20769;-81
2023/01/12 01:39:59;;;;;;;5.47;1.77;;;;;;;;;;5044271;28;20469;-81
2023/01/12 01:42:30;;;;;;;3.30;1.17;;;;;;;;;;5043935;28;20455;-81
2023/01/12 01:45:01;;;;;;;7.73;1.77;;;;;;;;;;5042949;28;20480;-80
2023/01/12 01:47:34;;;;;;;3.67;1.40;;;;;;;;;;5043411;28;20483;-81
2023/01/12 01:50:03;;;;;;;2.40;0.77;;;;;;;;;;5042467;28;20541;-81
2023/01/12 01:52:33;;;;;;;5.10;2.27;;;;;;;;;;5044075;28;20466;-82
2023/01/12 01:55:03;;;;;;;5.93;1.60;;;;;;;;;;5042892;28;20462;-80
2023/01/12 01:57:34;;;;;;;3.20;1.30;;;;;;;;;;5043491;28;20737;-79
2023/01/12 02:00:03;;;;;;;11.93;2.20;;;;;;;;;;5042208;28;20477;-80
2023/01/12 02:02:32;;;;;;;4.13;1.40;;;;;;;;;;5042735;28;20469;-81
2023/01/12 02:05:02;;;;;;;7.57;1.97;;;;;;;;;;5038060;28;20471;-80
2023/01/12 02:07:30;;;;;;;9.67;2.67;;;;;;;;;;5029086;28;20594;-78
2023/01/12 02:09:58;;;;;;;10.80;1.97;;;;;;;;;;5029665;28;20574;-79
2023/01/12 02:18:04;;;;;;;3.23;1.53;;;;;;;;;;5028872;28;20426;-81
2023/01/12 02:20:52;;;;;;;5.73;1.97;;;;;;;;;;5025945;28;20489;-80
2023/01/12 02:23:38;;;;;;;11.03;2.07;;;;;;;;;;5018765;28;20882;-80
2023/01/12 02:26:25;;;;;;;2.13;1.63;;;;;;;;;;5023232;28;20491;-78
2023/01/12 02:29:08;;;;;;;4.30;1.70;;;;;;;;;;5022234;28;20919;-81
2023/01/12 02:31:47;;;;;;;6.20;1.40;;;;;;;;;;5023310;28;20494;-80
2023/01/12 02:34:24;;;;;;;4.30;1.50;;;;;;;;;;5023563;28;20793;-80
2023/01/12 02:36:57;;;;;;;4.30;1.30;;;;;;;;;;5022242;28;20520;-79
2023/01/12 02:39:28;;;;;;;3.33;1.27;;;;;;;;;;5023424;28;20802;-79
2023/01/12 02:44:52;;;;;;;4.67;1.40;;;;;;;;;;5022321;28;20485;-79
2023/01/12 02:47:27;;;;;;;8.90;1.70;;;;;;;;;;5024535;28;21221;-78
2023/01/12 02:49:57;;;;;;;5.77;2.03;;;;;;;;;;5022739;28;21011;-79
2023/01/12 02:52:26;;;;;;;10.00;2.47;;;;;;;;;;5023709;28;20875;-80
2023/01/12 02:54:54;;;;;;;4.90;1.90;;;;;;;;;;5022799;28;20455;-79
2023/01/12 02:57:23;;;;;;;8.53;1.97;;;;;;;;;;5022305;28;20530;-79
2023/01/12 02:59:51;;;;;;;5.93;2.10;;;;;;;;;;5023564;28;20557;-79
2023/01/12 03:02:20;;;;;;;10.03;2.77;;;;;;;;;;5021933;28;20447;-80
2023/01/12 03:04:49;;;;;;;4.07;1.70;;;;;;;;;;5024059;28;20466;-80
2023/01/12 03:07:31;;;;;;;6.93;1.63;;;;;;;;;;5023734;28;20491;-81
2023/01/12 03:10:10;;;;;;;3.63;1.90;;;;;;;;;;5023856;28;20541;-80
2023/01/12 03:12:39;;;;;;;6.20;1.73;;;;;;;;;;5023446;28;20751;-80
2023/01/12 03:15:11;;;;;;;2.60;1.57;;;;;;;;;;5022482;28;20458;-80
2023/01/12 03:17:41;;;;;;;4.53;1.90;;;;;;;;;;5022072;28;20490;-79
2023/01/12 03:20:12;;;;;;;2.90;1.17;;;;;;;;;;5022828;28;20447;-79
2023/01/12 03:22:40;;;;;;;2.23;1.37;;;;;;;;;;5023293;28;20900;-79
2023/01/12 03:25:12;;;;;;;5.07;2.30;;;;;;;;;;5023927;28;20494;-79
2023/01/12 03:27:43;;;;;;;6.87;2.60;;;;;;;;;;5022288;28;20550;-79
2023/01/12 03:30:17;;;;;;;1.67;1.10;;;;;;;;;;5024404;28;20461;-79
2023/01/12 03:32:46;;;;;;;7.53;2.27;;;;;;;;;;5024054;28;20463;-79
2023/01/12 03:35:15;;;;;;;3.53;1.90;;;;;;;;;;5022085;28;20558;-80
2023/01/12 03:37:45;;;;;;;5.57;1.80;;;;;;;;;;5022944;28;20455;-78
2023/01/12 03:40:16;;;;;;;8.67;2.27;;;;;;;;;;5023558;28;20474;-78
2023/01/12 03:42:47;;;;;;;7.33;2.60;;;;;;;;;;5024761;28;20483;-79
2023/01/12 03:45:21;;;;;;;12.60;3.10;;;;;;;;;;5024708;28;20455;-80
2023/01/12 03:47:54;;;;;;;3.63;2.03;;;;;;;;;;5024249;28;20986;-80
2023/01/12 03:50:26;;;;;;;3.37;2.30;;;;;;;;;;5021473;28;20546;-80
2023/01/12 03:52:55;;;;;;;11.90;2.80;;;;;;;;;;5025575;28;20539;-78
2023/01/12 03:55:24;;;;;;;9.37;2.63;;;;;;;;;;5026393;28;20470;-79
2023/01/12 03:57:53;;;;;;;6.97;2.50;;;;;;;;;;5026997;28;20452;-78
2023/01/12 04:00:22;;;;;;;4.00;1.60;;;;;;;;;;5026504;28;20500;-78
2023/01/12 04:02:51;;;;;;;3.40;1.53;;;;;;;;;;5025409;28;20450;-77
2023/01/12 04:05:19;;;;;;;3.73;1.77;;;;;;;;;;5025148;28;20459;-78
2023/01/12 04:07:48;;;;;;;6.47;1.53;;;;;;;;;;5024100;28;20487;-81
2023/01/12 04:10:16;;;;;;;7.87;1.53;;;;;;;;;;5025257;28;20470;-81
2023/01/12 04:12:43;;;;;;;2.27;1.17;;;;;;;;;;5025155;28;20660;-78
2023/01/12 04:15:12;;;;;;;11.50;2.60;;;;;;;;;;5027843;28;20455;-79
2023/01/12 04:17:40;;;;;;;7.00;1.60;;;;;;;;;;5026694;28;20546;-78
2023/01/12 04:20:09;;;;;;;5.43;1.80;;;;;;;;;;5024701;28;20494;-78
2023/01/12 04:22:42;;;;;;;5.00;1.57;;;;;;;;;;5026687;28;20736;-78
2023/01/12 04:25:12;;;;;;;5.27;2.30;;;;;;;;;;5026456;28;20455;-78
2023/01/12 04:27:42;;;;;;;5.07;1.80;;;;;;;;;;5027820;28;20489;-79
2023/01/12 04:30:10;;;;;;;3.73;1.57;;;;;;;;;;5026370;28;20463;-81
2023/01/12 04:32:39;;;;;;;4.30;1.53;;;;;;;;;;5025726;28;20852;-79
2023/01/12 04:35:06;;;;;;;11.90;2.03;;;;;;;;;;5026576;28;20494;-81
2023/01/12 04:37:34;;;;;;;5.87;1.60;;;;;;;;;;5025712;28;20451;-81
2023/01/12 04:40:02;;;;;;;2.40;1.33;;;;;;;;;;5024985;28;20459;-81
2023/01/12 04:45:15;;;;;;;3.27;1.30;;;;;;;;;;5024657;28;20451;-80
2023/01/12 04:47:43;;;;;;;5.83;1.60;;;;;;;;;;5025151;28;20483;-81
2023/01/12 04:50:11;;;;;;;3.30;1.20;;;;;;;;;;5025511;28;20844;-80
2023/01/12 04:52:39;;;;;;;3.10;1.30;;;;;;;;;;5024265;28;20454;-80
2023/01/12 04:55:06;;;;;;;4.60;1.43;;;;;;;;;;5024625;28;20462;-80
2023/01/12 04:57:36;;;;;;;6.47;1.60;;;;;;;;;;5024884;28;20455;-80
2023/01/12 05:00:03;;;;;;;5.37;2.27;;;;;;;;;;5025802;28;20455;-80
2023/01/12 05:02:31;;;;;;;7.93;1.60;;;;;;;;;;5025493;28;20451;-80
2023/01/12 05:04:58;;;;;;;2.93;1.40;;;;;;;;;;5024126;28;20462;-81
2023/01/12 05:07:26;;;;;;;5.13;1.53;;;;;;;;;;5024675;28;20490;-80
2023/01/12 05:12:40;;;;;;;5.63;1.43;;;;;;;;;;5024476;28;20511;-79
2023/01/12 05:15:08;;;;;;;9.57;2.37;;;;;;;;;;5025564;28;20458;-80
2023/01/12 05:17:36;;;;;;;3.20;1.53;;;;;;;;;;5025632;28;20470;-80
2023/01/12 05:20:03;;;;;;;7.50;2.37;;;;;;;;;;5026067;28;20454;-80
2023/01/12 05:22:32;;;;;;;4.80;1.73;;;;;;;;;;5026682;28;20489;-80
2023/01/12 05:24:59;;;;;;;10.37;2.47;;;;;;;;;;5026433;28;20447;-80
2023/01/12 05:27:27;;;;;;;4.67;1.50;;;;;;;;;;5027199;28;20502;-80
2023/01/12 05:29:58;;;;;;;4.87;1.70;;;;;;;;;;5026223;28;20526;-80
2023/01/12 05:32:26;;;;;;;3.87;2.00;;;;;;;;;;5026906;28;20535;-80
2023/01/12 05:34:53;;;;;;;2.00;1.23;;;;;;;;;;5027904;28;20446;-80
2023/01/12 05:37:21;;;;;;;6.07;1.80;;;;;;;;;;5026275;28;20466;-80
2023/01/12 05:39:48;;;;;;;6.60;1.60;;;;;;;;;;5026978;28;20455;-79
2023/01/12 05:45:02;;;;;;;6.63;1.63;;;;;;;;;;5026585;28;20439;-80
2023/01/12 05:47:30;;;;;;;6.07;2.00;;;;;;;;;;5026858;28;20498;-80
2023/01/12 05:49:58;;;;;;;3.07;1.17;;;;;;;;;;5026491;28;20447;-80
2023/01/12 05:52:25;;;;;;;4.70;1.40;;;;;;;;;;5025341;28;20945;-80
2023/01/12 05:54:53;;;;;;;4.47;1.67;;;;;;;;;;5025398;28;20443;-79
2023/01/12 05:57:20;;;;;;;5.93;1.63;;;;;;;;;;5025554;28;20452;-80
2023/01/12 05:59:48;;;;;;;3.80;2.20;;;;;;;;;;5026886;28;20451;-80
2023/01/12 06:02:17;;;;;;;2.73;1.30;;;;;;;;;;5025690;28;20474;-80
2023/01/12 06:04:45;;;;;;;3.13;1.27;;;;;;;;;;5026325;28;20439;-80
2023/01/12 06:07:13;;;;;;;4.73;1.60;;;;;;;;;;5025592;28;20491;-79
2023/01/12 06:09:41;;;;;;;8.90;1.70;;;;;;;;;;5025454;28;20463;-81
2023/01/12 06:14:55;;;;;;;3.40;1.40;;;;;;;;;;5025220;28;20462;-80
2023/01/12 06:17:24;;;;;;;3.50;1.80;;;;;;;;;;5024336;28;20451;-81
2023/01/12 06:19:52;;;;;;;4.53;2.00;;;;;;;;;;5025962;28;20798;-80
2023/01/12 06:22:19;;;;;;;2.17;1.40;;;;;;;;;;5024606;28;20474;-81
2023/01/12 06:24:48;;;;;;;3.83;2.10;;;;;;;;;;5021116;28;20543;-81
2023/01/12 06:27:16;;;;;;;7.27;2.13;;;;;;;;;;5024766;28;20910;-80
2023/01/12 06:29:43;;;;;;;7.87;2.37;;;;;;;;;;5023830;28;20541;-80
2023/01/12 06:32:11;;;;;;;2.40;1.70;;;;;;;;;;5024416;28;20479;-80
2023/01/12 06:34:40;;;;;;;3.40;1.97;;;;;;;;;;5023945;28;20719;-80
2023/01/12 06:37:10;;;;;;;7.60;2.00;;;;;;;;;;5024048;28;20451;-80
2023/01/12 06:39:38;;;;;;;4.00;2.63;;;;;;;;;;5022596;28;20470;-79
2023/01/12 06:44:51;;;;;;;5.10;2.60;;;;;;;;;;5024157;28;20493;-78
2023/01/12 06:47:18;;;;;;;2.40;1.50;;;;;;;;;;5028794;28;20510;-79
2023/01/12 06:49:50;;;;;;;3.67;1.77;;;;;;;;;;5030001;28;20455;-79
2023/01/12 06:52:17;;;;;;;3.57;1.70;;;;;;;;;;5029705;28;20462;-79
2023/01/12 06:54:45;;;;;;;2.17;1.17;;;;;;;;;;5026597;28;20502;-79
2023/01/12 06:57:13;;;;;;;4.57;1.67;;;;;;;;;;5025321;28;20459;-79
2023/01/12 06:59:41;;;;;;;4.13;1.50;;;;;;;;;;5038337;28;20459;-80
2023/01/12 07:02:11;;;;;;;4.03;1.70;;;;;;;;;;5046306;28;20450;-78
2023/01/12 07:04:40;;;;;;;3.30;1.13;;;;;;;;;;5041710;28;20493;-79
2023/01/12 07:07:10;;;;;;;2.40;1.40;;;;;;;;;;5042478;28;20486;-79
2023/01/12 07:09:37;;;;;;;2.10;1.37;;;;;;;;;;5041245;28;20485;-79
2023/01/12 07:12:05;;;;;;;2.87;1.57;;;;;;;;;;5034824;28;20461;-78
2023/01/12 07:14:33;;;;;;;2.20;1.03;;;;;;;;;;5021224;28;20459;-76
2023/01/12 07:17:01;;;;;;;4.40;1.57;;;;;;;;;;5036407;28;20485;-78
2023/01/12 07:19:29;;;;;;;3.60;0.93;;;;;;;;;;5040744;28;20883;-77
2023/01/12 07:21:57;;;;;;;5.60;1.93;;;;;;;;;;5038336;28;20457;-77
2023/01/12 07:24:30;;;;;;;2.90;1.70;;;;;;;;;;5041866;28;20721;-77
2023/01/12 07:26:58;;;;;;;2.10;1.10;;;;;;;;;;5038748;28;20444;-77
2023/01/12 07:29:25;;;;;;;3.43;1.73;;;;;;;;;;5034731;28;20885;-78
2023/01/12 07:31:53;;;;;;;3.23;1.07;;;;;;;;;;5024210;28;20463;-78
2023/01/12 07:34:21;;;;;;;4.93;1.43;;;;;;;;;;5037392;28;20508;-77
2023/01/12 07:36:49;;;;;;;4.13;1.30;;;;;;;;;;5044147;28;20450;-77
2023/01/12 07:39:17;;;;;;;4.00;1.40;;;;;;;;;;5043933;28;20450;-77
2023/01/12 07:44:31;;;;;;;3.00;1.60;;;;;;;;;;5042067;28;20453;-77
2023/01/12 07:46:59;;;;;;;3.40;1.30;;;;;;;;;;5042957;28;20449;-77
2023/01/12 07:49:27;;;;;;;2.43;0.73;;;;;;;;;;5043353;28;20920;-77
2023/01/12 07:51:55;;;;;;;2.60;1.07;;;;;;;;;;5043306;28;20447;-77
2023/01/12 07:54:25;;;;;;;4.03;1.30;;;;;;;;;;5035496;28;20502;-78
2023/01/12 07:56:54;;;;;;;2.73;1.13;;;;;;;;;;5036435;28;20469;-80
2023/01/12 07:59:22;;;;;;;2.33;1.00;;;;;;;;;;5027741;28;20457;-79
2023/01/12 08:01:57;;;;;;;2.43;1.20;;;;;;;;;;5040519;28;20461;-79
2023/01/12 08:04:28;;;;;;;4.33;1.00;;;;;;;;;;5053652;28;20430;-79
2023/01/12 08:06:56;;;;;;;3.70;0.97;;;;;;;;;;5050224;28;20454;-78
2023/01/12 08:09:23;;;;;;;1.50;0.73;;;;;;;;;;5047582;28;20474;-77
2023/01/12 08:11:51;;;;;;;3.10;1.63;;;;;;;;;;5048328;28;20450;-79
2023/01/12 08:14:25;;;;;;;2.60;1.43;;;;;;;;;;5052255;28;20978;-78
2023/01/12 08:16:55;;;;;;;12.67;5.90;;;;;;;;;;5035452;28;20669;-77
2023/01/12 08:19:25;;;;;;;2.10;0.90;;;;;;;;;;5023475;28;20507;-77
2023/01/12 08:21:56;;;;;;;323.48;195.88;;;;;;;;;;5038568;28;20454;-77
2023/01/12 08:24:26;;;;;;;65.73;59.00;;;;;;;;;;5041524;28;20203;-77
2023/01/12 08:26:57;;;;;;;77.97;69.90;;;;;;;;;;5041613;28;20478;-77
2023/01/12 08:29:31;;;;;;;389.47;122.47;;;;;;;;;;5041161;28;20495;-77
2023/01/12 08:32:17;;;;;;;343.60;95.47;;;;;;;;;;5043459;28;20463;-78
2023/01/12 08:34:46;;;;;;;376.67;97.40;;;;;;;;;;5038299;28;20439;-78
2023/01/12 08:37:15;;;;;;;376.57;100.00;;;;;;;;;;5041640;28;20459;-78
2023/01/12 08:39:50;;;;;;;372.30;92.30;;;;;;;;;;5044943;28;20458;-78
2023/01/12 08:42:17;;;;;;;242.77;80.83;;;;;;;;;;5044985;28;20455;-76
2023/01/12 08:47:34;;;;;;;356.00;94.27;;;;;;;;;;5047737;28;20533;-78
2023/01/12 08:50:02;;;;;;;353.27;95.47;;;;;;;;;;5041599;28;20458;-79
2023/01/12 08:52:31;;;;;;;361.43;93.17;;;;;;;;;;5034607;28;20484;-78
2023/01/12 08:54:59;;;;;;;363.67;116.00;;;;;;;;;;5030169;28;20483;-77
2023/01/12 08:57:27;;;;;;;351.07;87.60;;;;;;;;;;5032832;28;20209;-77
2023/01/12 08:59:56;;;;;;;353.97;91.70;;;;;;;;;;5039387;28;20854;-76
2023/01/12 09:02:25;;;;;;;357.80;91.17;;;;;;;;;;5033654;28;20744;-77
2023/01/12 09:04:53;;;;;;;353.70;94.50;;;;;;;;;;5035872;28;20841;-77
2023/01/12 09:07:21;;;;;;;355.80;90.93;;;;;;;;;;5037812;28;20470;-76
2023/01/12 09:10:09;;;;;;;358.77;94.67;;;;;;;;;;5040915;28;20474;-80
2023/01/12 09:12:36;;;;;;;362.57;92.37;;;;;;;;;;5041456;28;20828;-78
2023/01/12 09:15:06;;;;;;;337.43;95.27;;;;;;;;;;5032922;28;20447;-79
2023/01/12 09:17:44;;;;;;;318.17;92.00;;;;;;;;;;5032268;28;20470;-80
2023/01/12 09:20:12;;;;;;;359.70;93.73;;;;;;;;;;5033130;28;20456;-79
2023/01/12 09:22:46;;;;;;;364.53;99.00;;;;;;;;;;5040202;28;20491;-80
2023/01/12 09:25:14;;;;;;;361.40;92.72;;;;;;;;;;5042699;28;20440;-78
2023/01/12 09:27:42;;;;;;;376.83;142.40;;;;;;;;;;5033370;28;20283;-79
2023/01/12 09:30:15;;;;;;;369.13;161.60;;;;;;;;;;5044765;28;20246;-79
2023/01/12 09:32:47;;;;;;;369.37;103.90;;;;;;;;;;5045541;28;20214;-79
2023/01/12 09:35:18;;;;;;;372.75;119.70;;;;;;;;;;5045564;28;20553;-79
2023/01/12 09:37:55;;;;;;;343.90;88.13;;;;;;;;;;5045759;28;20242;-79
2023/01/12 09:40:24;;;;;;;210.70;84.33;;;;;;;;;;5041732;28;20537;-78
2023/01/12 09:48:24;;;;;;;164.07;73.80;;;;;;;;;;5028552;28;20850;-78
2023/01/12 09:50:54;;;;;;;153.00;83.00;;;;;;;;;;5034684;28;20466;-78
2023/01/12 09:53:23;;;;;;;136.23;68.57;;;;;;;;;;5043029;28;20541;-78
2023/01/12 09:55:57;;;;;;;133.40;76.50;;;;;;;;;;5039661;28;20462;-78
2023/01/12 09:58:46;;;;;;;123.87;70.43;;;;;;;;;;5035194;28;20461;-80
2023/01/12 10:01:17;;;;;;;310.83;80.75;;;;;;;;;;5032718;28;20451;-79
2023/01/12 10:03:45;;;;;;;314.65;87.07;;;;;;;;;;5040663;28;20203;-79
2023/01/12 10:06:15;;;;;;;263.25;78.63;;;;;;;;;;5031186;28;20196;-80
2023/01/12 10:08:45;;;;;;;285.45;80.15;;;;;;;;;;5037882;28;20223;-80
2023/01/12 10:11:19;;;;;;;253.23;79.53;;;;;;;;;;5035899;28;20200;-79
2023/01/12 10:14:10;;;;;;;278.90;81.03;;;;;;;;;;5040056;28;20219;-78
2023/01/12 10:16:51;;;;;;;284.67;75.30;;;;;;;;;;5005386;28;20474;-78
2023/01/12 10:23:24;;;;;;;;;;;;;;;;;;;;;
2023/01/12 10:25:58;;;;;;;304.27;81.87;;;;;;;;;;5037685;28;20462;-78
2023/01/12 10:28:28;;;;;;;315.43;86.83;;;;;;;;;;5039528;28;20481;-78
2023/01/12 10:31:01;;;;;;;319.17;87.97;;;;;;;;;;5035373;28;20466;-77
2023/01/12 10:33:41;;;;;;;277.63;98.80;;;;;;;;;;5039227;28;20454;-79
2023/01/12 10:36:10;;;;;;;270.27;89.33;;;;;;;;;;5029660;28;20462;-78
2023/01/12 10:38:39;;;;;;;223.60;83.13;;;;;;;;;;5031484;28;20679;-80
2023/01/12 10:41:18;;;;;;;258.60;89.00;;;;;;;;;;5034129;28;20462;-78
2023/01/12 10:43:48;;;;;;;238.13;87.07;;;;;;;;;;5031043;28;20717;-79
2023/01/12 10:46:17;;;;;;;155.23;70.17;;;;;;;;;;5041135;28;20932;-79
2023/01/12 10:48:53;;;;;;;228.97;82.37;;;;;;;;;;5039206;28;20634;-78
2023/01/12 10:51:32;;;;;;;251.53;86.87;;;;;;;;;;5032659;28;20454;-78
2023/01/12 10:54:02;;;;;;;334.93;95.33;;;;;;;;;;5039504;28;20453;-78
2023/01/12 10:56:39;;;;;;;328.87;96.00;;;;;;;;;;5033161;28;20454;-78
2023/01/12 10:59:16;;;;;;;307.90;95.57;;;;;;;;;;5031124;28;20541;-77
2023/01/12 11:01:45;;;;;;;252.00;86.40;;;;;;;;;;5034185;28;20581;-79
2023/01/12 11:04:15;;;;;;;339.57;95.50;;;;;;;;;;5037156;28;20439;-81
2023/01/12 11:06:47;;;;;;;279.37;86.57;;;;;;;;;;5027885;28;20475;-79
2023/01/12 11:09:23;;;;;;;266.60;96.80;;;;;;;;;;5033961;28;20479;-79
2023/01/12 11:11:54;;;;;;;334.97;95.23;;;;;;;;;;5036760;28;20450;-78
2023/01/12 11:14:26;;;;;;;345.17;97.17;;;;;;;;;;5038202;28;20544;-80
2023/01/12 11:16:55;;;;;;;348.57;99.60;;;;;;;;;;5042202;28;20455;-80
2023/01/12 11:19:27;;;;;;;346.77;96.43;;;;;;;;;;5032916;28;20447;-77
2023/01/12 11:22:05;;;;;;;322.80;98.40;;;;;;;;;;5035142;28;20991;-77
2023/01/12 11:24:40;;;;;;;233.30;91.17;;;;;;;;;;5032461;28;20466;-78
2023/01/12 11:27:14;;;;;;;242.83;87.50;;;;;;;;;;5028128;28;20907;-79
2023/01/12 11:29:46;;;;;;;245.80;89.20;;;;;;;;;;5024292;28;20497;-78
2023/01/12 11:32:17;;;;;;;219.20;92.27;;;;;;;;;;5022087;28;20534;-80
2023/01/12 11:34:52;;;;;;;291.87;91.60;;;;;;;;;;5026131;28;20459;-79
2023/01/12 11:37:23;;;;;;;201.53;82.10;;;;;;;;;;5032422;28;20454;-79
2023/01/12 11:39:54;;;;;;;345.27;98.20;;;;;;;;;;5036120;28;20898;-78
2023/01/12 11:45:10;;;;;;;310.60;94.17;;;;;;;;;;5033787;28;20492;-79
2023/01/12 11:47:47;;;;;;;176.60;87.93;;;;;;;;;;5034847;28;20463;-78
2023/01/12 11:53:22;;;;;;;74.37;65.87;;;;;;;;;;5041609;28;20450;-79
2023/01/12 11:55:58;;;;;;;339.17;99.83;;;;;;;;;;5039069;28;20493;-79
2023/01/12 11:58:32;;;;;;;66.27;60.23;;;;;;;;;;5033627;28;20478;-79
2023/01/12 12:01:07;;;;;;;66.17;60.47;;;;;;;;;;5034030;28;20743;-79
2023/01/12 12:03:45;;;;;;;68.13;62.00;;;;;;;;;;5034236;28;20462;-79
2023/01/12 12:06:24;;;;;;;55.50;51.30;;;;;;;;;;5040276;28;20498;-79
2023/01/12 12:08:55;;;;;;;71.47;64.43;;;;;;;;;;5028513;28;20752;-79
2023/01/12 12:11:28;;;;;;;205.03;94.37;;;;;;;;;;5035615;28;20562;-78
2023/01/12 12:14:00;;;;;;;279.13;104.97;;;;;;;;;;5036403;28;20901;-80
2023/01/12 12:16:31;;;;;;;38.43;35.83;;;;;;;;;;5035037;28;20523;-80
2023/01/12 12:19:08;;;;;;;49.80;46.17;;;;;;;;;;5034202;28;20447;-79
2023/01/12 12:21:51;;;;;;;53.00;48.70;;;;;;;;;;5034922;28;20976;-79
2023/01/12 12:24:38;;;;;;;47.93;44.33;;;;;;;;;;5037053;28;20474;-79
2023/01/12 12:27:10;;;;;;;51.23;47.23;;;;;;;;;;5030489;28;20478;-79
2023/01/12 12:29:46;;;;;;;41.70;38.90;;;;;;;;;;5024043;28;20494;-79
2023/01/12 12:32:19;;;;;;;44.13;40.93;;;;;;;;;;5025796;28;20874;-79
2023/01/12 12:35:00;;;;;;;36.60;34.27;;;;;;;;;;5025642;28;20451;-79
2023/01/12 12:37:34;;;;;;;37.93;35.50;;;;;;;;;;5022566;28;20558;-77
2023/01/12 12:40:07;;;;;;;41.90;38.77;;;;;;;;;;5022073;28;20656;-77
2023/01/12 12:45:36;;;;;;;23.50;22.03;;;;;;;;;;5031735;28;20445;-78
2023/01/12 12:48:08;;;;;;;26.67;25.03;;;;;;;;;;5038417;28;20934;-77
2023/01/12 12:50:47;;;;;;;12.40;11.70;;;;;;;;;;5035572;28;20475;-78
2023/01/12 12:53:27;;;;;;;14.77;13.90;;;;;;;;;;5044996;28;20463;-79
2023/01/12 12:56:00;;;;;;;15.63;14.53;;;;;;;;;;5030790;28;20455;-79
2023/01/12 12:58:29;;;;;;;8.77;8.17;;;;;;;;;;5025723;28;21411;-79
2023/01/12 13:01:18;;;;;;;9.47;8.87;;;;;;;;;;5043222;28;20458;-79
2023/01/12 13:03:49;;;;;;;9.17;8.37;;;;;;;;;;5039794;28;20533;-79
2023/01/12 13:06:20;;;;;;;17.73;16.80;;;;;;;;;;5043258;28;20557;-80
2023/01/12 13:08:49;;;;;;;4.83;4.33;;;;;;;;;;5040860;28;20531;-79
2023/01/12 13:11:42;;;;;;;5.40;4.90;;;;;;;;;;5043527;28;20458;-79
2023/01/12 13:14:20;;;;;;;4.63;4.23;;;;;;;;;;5047132;28;20434;-79
2023/01/12 13:16:50;;;;;;;3.60;3.20;;;;;;;;;;5046114;28;20489;-79
2023/01/12 13:19:35;;;;;;;35.07;33.07;;;;;;;;;;5042008;28;20450;-79
2023/01/12 13:22:17;;;;;;;34.73;32.50;;;;;;;;;;5047204;28;20957;-80
2023/01/12 13:24:45;;;;;;;48.80;44.77;;;;;;;;;;5046072;28;20482;-80
2023/01/12 13:27:31;;;;;;;25.53;24.20;;;;;;;;;;5048304;28;20461;-80
2023/01/12 13:30:14;;;;;;;48.30;44.83;;;;;;;;;;5047513;28;20494;-79
2023/01/12 13:32:44;;;;;;;30.80;29.00;;;;;;;;;;5033400;28;20478;-79
2023/01/12 13:35:26;;;;;;;55.40;50.70;;;;;;;;;;5035284;28;20541;-80
2023/01/12 13:38:01;;;;;;;56.30;51.83;;;;;;;;;;5012694;28;20854;-80
2023/01/12 13:40:30;;;;;;;35.33;33.03;;;;;;;;;;5035131;28;20470;-80
2023/01/12 13:43:18;;;;;;;22.47;21.27;;;;;;;;;;5034998;28;20448;-79
2023/01/12 13:45:55;;;;;;;39.90;36.90;;;;;;;;;;5044173;28;20457;-79
2023/01/12 13:48:25;;;;;;;52.37;48.00;;;;;;;;;;5036972;28;20447;-80
2023/01/12 13:50:54;;;;;;;44.33;41.20;;;;;;;;;;5036266;28;20482;-79
2023/01/12 13:53:25;;;;;;;41.20;38.60;;;;;;;;;;5029304;28;21073;-80
2023/01/12 13:56:00;;;;;;;133.10;85.67;;;;;;;;;;5040659;28;20442;-80
2023/01/12 13:58:28;;;;;;;225.40;111.80;;;;;;;;;;5030193;28;20446;-79
2023/01/12 14:00:57;;;;;;;178.53;95.53;;;;;;;;;;5044779;28;20469;-80
2023/01/12 14:03:36;;;;;;;155.97;96.90;;;;;;;;;;5034330;28;20466;-78
2023/01/12 14:06:07;;;;;;;173.50;90.70;;;;;;;;;;5035539;28;20454;-80
2023/01/12 14:08:45;;;;;;;116.97;79.07;;;;;;;;;;5040696;28;20454;-80
2023/01/12 14:11:23;;;;;;;123.10;82.73;;;;;;;;;;5037244;28;20522;-80
2023/01/12 14:13:56;;;;;;;99.57;74.20;;;;;;;;;;5035182;28;20489;-80
2023/01/12 14:19:32;;;;;;;156.03;91.57;;;;;;;;;;5036495;28;20473;-79
2023/01/12 14:25:17;;;;;;;99.53;86.13;;;;;;;;;;5027823;28;20464;-79
2023/01/12 14:27:53;;;;;;;136.93;88.77;;;;;;;;;;5032634;28;20462;-81
2023/01/12 14:30:43;;;;;;;73.77;65.70;;;;;;;;;;5039510;28;20713;-80
2023/01/12 14:33:15;;;;;;;103.00;83.27;;;;;;;;;;5033979;28;20463;-79
2023/01/12 14:35:47;;;;;;;243.23;110.47;;;;;;;;;;5029415;28;20459;-80
2023/01/12 14:38:16;;;;;;;67.37;62.07;;;;;;;;;;5039186;28;20454;-81
2023/01/12 14:40:49;;;;;;;8.97;8.27;;;;;;;;;;5041172;28;20956;-80
2023/01/12 14:46:32;;;;;;;147.33;89.80;;;;;;;;;;5039549;28;20457;-82
2023/01/12 14:49:03;;;;;;;298.40;114.80;;;;;;;;;;5039066;28;20829;-80
2023/01/12 14:51:37;;;;;;;231.40;105.13;;;;;;;;;;5043534;28;20470;-79
2023/01/12 14:54:19;;;;;;;218.27;104.73;;;;;;;;;;5038899;28;20526;-78
2023/01/12 14:56:55;;;;;;;80.70;71.93;;;;;;;;;;5038401;28;20755;-78
2023/01/12 14:59:24;;;;;;;81.20;73.40;;;;;;;;;;5038871;28;20454;-80
2023/01/12 15:01:52;;;;;;;225.20;104.50;;;;;;;;;;5041298;28;20454;-79
2023/01/12 15:04:38;;;;;;;129.00;90.97;;;;;;;;;;5034814;28;20467;-79
2023/01/12 15:07:24;;;;;;;76.63;39.83;;;;;;;;;;5026601;28;20505;-80
2023/01/12 15:09:58;;;;;;;153.83;80.93;;;;;;;;;;5032096;28;20556;-79
2023/01/12 15:12:47;;;;;;;75.63;68.53;;;;;;;;;;5041155;28;20446;-80
2023/01/12 15:15:19;;;;;;;4.27;2.13;;;;;;;;;;5037152;28;20455;-80
2023/01/12 15:26:08;;;;;;;2.50;0.70;;;;;;;;;;5031885;28;20445;-79
2023/01/12 15:28:35;;;;;;;1.20;0.50;;;;;;;;;;5036530;28;20570;-80
2023/01/12 15:31:07;;;;;;;1.90;0.80;;;;;;;;;;5024305;28;20475;-78
2023/01/12 15:33:35;;;;;;;82.97;72.57;;;;;;;;;;5035260;28;20497;-81
2023/01/12 15:36:03;;;;;;;179.83;90.87;;;;;;;;;;5032021;28;20458;-80
2023/01/12 15:38:32;;;;;;;186.20;95.70;;;;;;;;;;5038929;28;20458;-80
2023/01/12 15:41:05;;;;;;;2.47;0.80;;;;;;;;;;5037132;28;20493;-79
2023/01/12 15:43:33;;;;;;;57.53;52.50;;;;;;;;;;5027740;28;20582;-80
2023/01/12 15:46:01;;;;;;;2.50;0.90;;;;;;;;;;5032696;28;20485;-79
2023/01/12 15:48:31;;;;;;;2.73;1.00;;;;;;;;;;5037236;28;20459;-80
2023/01/12 15:50:59;;;;;;;154.17;87.30;;;;;;;;;;5041789;28;20487;-79
2023/01/12 15:53:29;;;;;;;193.00;96.13;;;;;;;;;;5039049;28;20454;-81
2023/01/12 15:56:02;;;;;;;199.07;94.17;;;;;;;;;;5040482;28;20510;-80
2023/01/12 15:58:36;;;;;;;225.03;100.20;;;;;;;;;;5033678;28;20515;-80
2023/01/12 16:01:08;;;;;;;186.67;86.77;;;;;;;;;;5033753;28;20562;-80